sensor_id;sensor_type;location;lat;lon;timestamp;P1;durP1;ratioP1;P2;durP2;ratioP2
31043;SDS011;17710;52.520;13.352;2023-04-15T00:00:55;29.90;;;20.33;;
31043;SDS011;17710;52.520;13.352;2023-04-15T00:03:22;31.60;;;20.52;;
31043;SDS011;17710;52.520;13.352;2023-04-15T00:05:48;29.52;;;20.90;;
31043;SDS011;17710;52.520;13.352;2023-04-15T00:08:15;32.58;;;22.08;;
31043;SDS011;17710;52.520;13.352;2023-04-15T00:10:42;33.72;;;22.73;;
31043;SDS011;17710;52.520;13.352;2023-04-15T00:13:10;33.13;;;21.73;;
31043;SDS011;17710;52.520;13.352;2023-04-15T00:15:36;34.22;;;22.67;;
31043;SDS011;17710;52.520;13.352;2023-04-15T00:18:03;35.72;;;22.45;;
31043;SDS011;17710;52.520;13.352;2023-04-15T00:20:29;34.05;;;23.08;;
31043;SDS011;17710;52.520;13.352;2023-04-15T00:22:56;36.67;;;24.20;;
31043;SDS011;17710;52.520;13.352;2023-04-15T00:25:23;43.35;;;24.63;;
31043;SDS011;17710;52.520;13.352;2023-04-15T00:27:51;37.58;;;23.67;;
31043;SDS011;17710;52.520;13.352;2023-04-15T00:30:17;37.45;;;24.25;;
31043;SDS011;17710;52.520;13.352;2023-04-15T00:32:44;37.72;;;22.52;;
31043;SDS011;17710;52.520;13.352;2023-04-15T00:35:10;38.40;;;25.13;;
31043;SDS011;17710;52.520;13.352;2023-04-15T00:37:37;38.17;;;24.60;;
31043;SDS011;17710;52.520;13.352;2023-04-15T00:40:04;38.53;;;25.83;;
31043;SDS011;17710;52.520;13.352;2023-04-15T00:42:31;43.35;;;25.55;;
31043;SDS011;17710;52.520;13.352;2023-04-15T00:45:00;38.78;;;25.08;;
31043;SDS011;17710;52.520;13.352;2023-04-15T00:47:27;39.28;;;24.60;;
31043;SDS011;17710;52.520;13.352;2023-04-15T00:49:54;38.90;;;24.42;;
31043;SDS011;17710;52.520;13.352;2023-04-15T00:52:22;39.75;;;23.13;;
31043;SDS011;17710;52.520;13.352;2023-04-15T00:54:48;39.28;;;25.02;;
31043;SDS011;17710;52.520;13.352;2023-04-15T00:57:15;37.88;;;25.00;;
31043;SDS011;17710;52.520;13.352;2023-04-15T00:59:41;40.03;;;25.98;;
31043;SDS011;17710;52.520;13.352;2023-04-15T01:02:12;40.78;;;26.70;;
31043;SDS011;17710;52.520;13.352;2023-04-15T01:04:38;38.30;;;24.48;;
31043;SDS011;17710;52.520;13.352;2023-04-15T01:07:05;40.72;;;24.65;;
31043;SDS011;17710;52.520;13.352;2023-04-15T01:09:32;46.50;;;25.42;;
31043;SDS011;17710;52.520;13.352;2023-04-15T01:11:58;41.60;;;25.08;;
31043;SDS011;17710;52.520;13.352;2023-04-15T01:14:26;44.95;;;26.77;;
31043;SDS011;17710;52.520;13.352;2023-04-15T01:16:54;40.10;;;25.67;;
31043;SDS011;17710;52.520;13.352;2023-04-15T01:19:22;44.03;;;26.75;;
31043;SDS011;17710;52.520;13.352;2023-04-15T01:21:51;43.65;;;26.17;;
31043;SDS011;17710;52.520;13.352;2023-04-15T01:24:17;41.20;;;26.73;;
31043;SDS011;17710;52.520;13.352;2023-04-15T01:26:46;43.03;;;25.33;;
31043;SDS011;17710;52.520;13.352;2023-04-15T01:29:14;42.00;;;26.40;;
31043;SDS011;17710;52.520;13.352;2023-04-15T01:31:45;43.33;;;26.40;;
31043;SDS011;17710;52.520;13.352;2023-04-15T01:34:15;46.30;;;27.50;;
31043;SDS011;17710;52.520;13.352;2023-04-15T01:36:42;46.35;;;26.25;;
31043;SDS011;17710;52.520;13.352;2023-04-15T01:39:08;45.67;;;27.90;;
31043;SDS011;17710;52.520;13.352;2023-04-15T01:41:35;46.35;;;25.95;;
31043;SDS011;17710;52.520;13.352;2023-04-15T01:44:03;61.03;;;35.55;;
31043;SDS011;17710;52.520;13.352;2023-04-15T01:46:29;47.05;;;26.85;;
31043;SDS011;17710;52.520;13.352;2023-04-15T01:48:56;45.83;;;27.17;;
31043;SDS011;17710;52.520;13.352;2023-04-15T01:51:22;45.55;;;26.98;;
31043;SDS011;17710;52.520;13.352;2023-04-15T01:53:49;49.80;;;27.88;;
31043;SDS011;17710;52.520;13.352;2023-04-15T01:56:16;46.20;;;27.95;;
31043;SDS011;17710;52.520;13.352;2023-04-15T01:58:42;46.45;;;26.73;;
31043;SDS011;17710;52.520;13.352;2023-04-15T02:01:10;45.42;;;27.55;;
31043;SDS011;17710;52.520;13.352;2023-04-15T02:03:37;50.47;;;27.88;;
31043;SDS011;17710;52.520;13.352;2023-04-15T02:06:03;45.92;;;26.35;;
31043;SDS011;17710;52.520;13.352;2023-04-15T02:08:30;47.75;;;26.90;;
31043;SDS011;17710;52.520;13.352;2023-04-15T02:10:56;46.40;;;26.85;;
31043;SDS011;17710;52.520;13.352;2023-04-15T02:13:22;51.42;;;28.58;;
31043;SDS011;17710;52.520;13.352;2023-04-15T02:15:49;46.78;;;27.33;;
31043;SDS011;17710;52.520;13.352;2023-04-15T02:18:17;50.35;;;28.73;;
31043;SDS011;17710;52.520;13.352;2023-04-15T02:20:44;46.70;;;26.75;;
31043;SDS011;17710;52.520;13.352;2023-04-15T02:23:11;49.20;;;28.08;;
31043;SDS011;17710;52.520;13.352;2023-04-15T02:25:38;48.20;;;27.50;;
31043;SDS011;17710;52.520;13.352;2023-04-15T02:28:04;47.90;;;26.67;;
31043;SDS011;17710;52.520;13.352;2023-04-15T02:30:31;46.22;;;26.63;;
31043;SDS011;17710;52.520;13.352;2023-04-15T02:32:57;46.38;;;26.60;;
31043;SDS011;17710;52.520;13.352;2023-04-15T02:35:26;45.13;;;26.92;;
31043;SDS011;17710;52.520;13.352;2023-04-15T02:37:52;47.95;;;27.38;;
31043;SDS011;17710;52.520;13.352;2023-04-15T02:40:19;47.17;;;27.35;;
31043;SDS011;17710;52.520;13.352;2023-04-15T02:42:45;48.65;;;27.77;;
31043;SDS011;17710;52.520;13.352;2023-04-15T02:45:12;48.70;;;27.13;;
31043;SDS011;17710;52.520;13.352;2023-04-15T02:47:38;49.17;;;27.33;;
31043;SDS011;17710;52.520;13.352;2023-04-15T02:50:06;48.05;;;27.05;;
31043;SDS011;17710;52.520;13.352;2023-04-15T02:52:35;45.63;;;27.05;;
31043;SDS011;17710;52.520;13.352;2023-04-15T02:55:01;47.33;;;27.20;;
31043;SDS011;17710;52.520;13.352;2023-04-15T02:57:29;48.42;;;27.38;;
31043;SDS011;17710;52.520;13.352;2023-04-15T02:59:55;46.83;;;26.42;;
31043;SDS011;17710;52.520;13.352;2023-04-15T03:02:22;49.00;;;26.95;;
31043;SDS011;17710;52.520;13.352;2023-04-15T03:04:49;49.03;;;26.38;;
31043;SDS011;17710;52.520;13.352;2023-04-15T03:07:16;52.72;;;27.33;;
31043;SDS011;17710;52.520;13.352;2023-04-15T03:09:44;50.55;;;26.00;;
31043;SDS011;17710;52.520;13.352;2023-04-15T03:12:11;47.63;;;26.20;;
31043;SDS011;17710;52.520;13.352;2023-04-15T03:14:38;47.13;;;26.80;;
31043;SDS011;17710;52.520;13.352;2023-04-15T03:17:04;46.75;;;26.00;;
31043;SDS011;17710;52.520;13.352;2023-04-15T03:19:31;46.38;;;26.05;;
31043;SDS011;17710;52.520;13.352;2023-04-15T03:21:57;50.65;;;27.58;;
31043;SDS011;17710;52.520;13.352;2023-04-15T03:24:24;46.10;;;27.02;;
31043;SDS011;17710;52.520;13.352;2023-04-15T03:26:54;46.90;;;26.67;;
31043;SDS011;17710;52.520;13.352;2023-04-15T03:29:21;46.28;;;26.20;;
31043;SDS011;17710;52.520;13.352;2023-04-15T03:31:48;59.65;;;27.33;;
31043;SDS011;17710;52.520;13.352;2023-04-15T03:34:14;44.42;;;25.13;;
31043;SDS011;17710;52.520;13.352;2023-04-15T03:36:41;49.70;;;26.85;;
31043;SDS011;17710;52.520;13.352;2023-04-15T03:39:07;45.35;;;25.67;;
31043;SDS011;17710;52.520;13.352;2023-04-15T03:41:33;43.60;;;26.27;;
31043;SDS011;17710;52.520;13.352;2023-04-15T03:44:01;40.25;;;24.55;;
31043;SDS011;17710;52.520;13.352;2023-04-15T03:46:28;42.25;;;24.70;;
31043;SDS011;17710;52.520;13.352;2023-04-15T03:48:54;41.03;;;24.38;;
31043;SDS011;17710;52.520;13.352;2023-04-15T03:51:21;43.92;;;25.20;;
31043;SDS011;17710;52.520;13.352;2023-04-15T03:53:47;41.30;;;25.10;;
31043;SDS011;17710;52.520;13.352;2023-04-15T03:56:13;44.58;;;24.65;;
31043;SDS011;17710;52.520;13.352;2023-04-15T03:58:40;40.40;;;24.48;;
31043;SDS011;17710;52.520;13.352;2023-04-15T04:01:07;43.15;;;24.92;;
31043;SDS011;17710;52.520;13.352;2023-04-15T04:03:34;42.10;;;24.58;;
31043;SDS011;17710;52.520;13.352;2023-04-15T04:06:01;47.83;;;25.25;;
31043;SDS011;17710;52.520;13.352;2023-04-15T04:08:27;43.20;;;24.48;;
31043;SDS011;17710;52.520;13.352;2023-04-15T04:10:54;40.33;;;23.58;;
31043;SDS011;17710;52.520;13.352;2023-04-15T04:13:20;40.63;;;24.02;;
31043;SDS011;17710;52.520;13.352;2023-04-15T04:15:47;37.97;;;24.33;;
31043;SDS011;17710;52.520;13.352;2023-04-15T04:18:15;43.00;;;23.85;;
31043;SDS011;17710;52.520;13.352;2023-04-15T04:20:41;41.60;;;24.27;;
31043;SDS011;17710;52.520;13.352;2023-04-15T04:23:07;40.58;;;23.05;;
31043;SDS011;17710;52.520;13.352;2023-04-15T04:25:34;37.88;;;23.73;;
31043;SDS011;17710;52.520;13.352;2023-04-15T04:28:00;41.35;;;23.15;;
31043;SDS011;17710;52.520;13.352;2023-04-15T04:30:27;41.08;;;24.42;;
31043;SDS011;17710;52.520;13.352;2023-04-15T04:32:53;40.80;;;23.55;;
31043;SDS011;17710;52.520;13.352;2023-04-15T04:35:21;41.47;;;23.60;;
31043;SDS011;17710;52.520;13.352;2023-04-15T04:37:50;38.00;;;22.30;;
31043;SDS011;17710;52.520;13.352;2023-04-15T04:40:16;42.75;;;24.10;;
31043;SDS011;17710;52.520;13.352;2023-04-15T04:42:43;38.03;;;22.63;;
31043;SDS011;17710;52.520;13.352;2023-04-15T04:45:09;40.38;;;23.20;;
31043;SDS011;17710;52.520;13.352;2023-04-15T04:47:36;37.03;;;22.23;;
31043;SDS011;17710;52.520;13.352;2023-04-15T04:50:03;40.75;;;23.42;;
31043;SDS011;17710;52.520;13.352;2023-04-15T04:52:32;35.05;;;20.98;;
31043;SDS011;17710;52.520;13.352;2023-04-15T04:54:58;35.67;;;21.85;;
31043;SDS011;17710;52.520;13.352;2023-04-15T04:57:25;36.83;;;22.45;;
31043;SDS011;17710;52.520;13.352;2023-04-15T04:59:51;37.95;;;21.98;;
31043;SDS011;17710;52.520;13.352;2023-04-15T05:02:18;33.35;;;20.73;;
31043;SDS011;17710;52.520;13.352;2023-04-15T05:04:44;41.45;;;20.88;;
31043;SDS011;17710;52.520;13.352;2023-04-15T05:07:10;32.95;;;19.73;;
31043;SDS011;17710;52.520;13.352;2023-04-15T05:09:38;37.00;;;21.90;;
31043;SDS011;17710;52.520;13.352;2023-04-15T05:12:05;35.13;;;20.48;;
31043;SDS011;17710;52.520;13.352;2023-04-15T05:14:33;32.80;;;20.00;;
31043;SDS011;17710;52.520;13.352;2023-04-15T05:16:59;32.30;;;20.13;;
31043;SDS011;17710;52.520;13.352;2023-04-15T05:19:25;33.92;;;20.00;;
31043;SDS011;17710;52.520;13.352;2023-04-15T05:21:52;33.97;;;19.38;;
31043;SDS011;17710;52.520;13.352;2023-04-15T05:24:18;34.85;;;20.17;;
31043;SDS011;17710;52.520;13.352;2023-04-15T05:26:46;31.10;;;18.73;;
31043;SDS011;17710;52.520;13.352;2023-04-15T05:29:13;29.75;;;19.13;;
31043;SDS011;17710;52.520;13.352;2023-04-15T05:31:39;27.05;;;18.15;;
31043;SDS011;17710;52.520;13.352;2023-04-15T05:34:06;30.48;;;18.85;;
31043;SDS011;17710;52.520;13.352;2023-04-15T05:36:32;33.45;;;19.67;;
31043;SDS011;17710;52.520;13.352;2023-04-15T05:38:59;30.15;;;18.63;;
31043;SDS011;17710;52.520;13.352;2023-04-15T05:41:26;27.35;;;17.80;;
31043;SDS011;17710;52.520;13.352;2023-04-15T05:43:53;32.10;;;16.88;;
31043;SDS011;17710;52.520;13.352;2023-04-15T05:46:20;29.92;;;17.25;;
31043;SDS011;17710;52.520;13.352;2023-04-15T05:48:47;24.40;;;15.07;;
31043;SDS011;17710;52.520;13.352;2023-04-15T05:51:19;23.40;;;15.63;;
31043;SDS011;17710;52.520;13.352;2023-04-15T05:53:46;25.52;;;17.02;;
31043;SDS011;17710;52.520;13.352;2023-04-15T05:56:12;26.13;;;16.65;;
31043;SDS011;17710;52.520;13.352;2023-04-15T05:58:39;30.63;;;16.80;;
31043;SDS011;17710;52.520;13.352;2023-04-15T06:01:07;22.63;;;15.45;;
31043;SDS011;17710;52.520;13.352;2023-04-15T06:03:33;22.92;;;14.98;;
31043;SDS011;17710;52.520;13.352;2023-04-15T06:05:59;25.00;;;15.80;;
31043;SDS011;17710;52.520;13.352;2023-04-15T06:08:26;24.35;;;15.50;;
31043;SDS011;17710;52.520;13.352;2023-04-15T06:10:53;25.35;;;15.60;;
31043;SDS011;17710;52.520;13.352;2023-04-15T06:13:19;26.35;;;15.75;;
31043;SDS011;17710;52.520;13.352;2023-04-15T06:15:46;20.50;;;14.50;;
31043;SDS011;17710;52.520;13.352;2023-04-15T06:18:13;22.88;;;14.75;;
31043;SDS011;17710;52.520;13.352;2023-04-15T06:20:40;22.65;;;14.68;;
31043;SDS011;17710;52.520;13.352;2023-04-15T06:23:06;22.70;;;14.48;;
31043;SDS011;17710;52.520;13.352;2023-04-15T06:25:33;20.65;;;13.82;;
31043;SDS011;17710;52.520;13.352;2023-04-15T06:27:59;23.40;;;15.15;;
31043;SDS011;17710;52.520;13.352;2023-04-15T06:30:26;22.10;;;15.27;;
31043;SDS011;17710;52.520;13.352;2023-04-15T06:32:52;19.35;;;14.05;;
31043;SDS011;17710;52.520;13.352;2023-04-15T06:35:21;20.55;;;13.50;;
31043;SDS011;17710;52.520;13.352;2023-04-15T06:37:47;24.33;;;14.68;;
31043;SDS011;17710;52.520;13.352;2023-04-15T06:40:14;24.90;;;13.73;;
31043;SDS011;17710;52.520;13.352;2023-04-15T06:42:41;20.30;;;14.10;;
31043;SDS011;17710;52.520;13.352;2023-04-15T06:45:07;23.42;;;13.50;;
31043;SDS011;17710;52.520;13.352;2023-04-15T06:47:37;16.83;;;12.02;;
31043;SDS011;17710;52.520;13.352;2023-04-15T06:50:03;20.52;;;13.05;;
31043;SDS011;17710;52.520;13.352;2023-04-15T06:52:31;17.58;;;12.15;;
31043;SDS011;17710;52.520;13.352;2023-04-15T06:54:58;18.70;;;12.48;;
31043;SDS011;17710;52.520;13.352;2023-04-15T06:57:25;19.83;;;11.50;;
31043;SDS011;17710;52.520;13.352;2023-04-15T06:59:52;17.98;;;12.07;;
31043;SDS011;17710;52.520;13.352;2023-04-15T07:02:19;16.30;;;11.18;;
31043;SDS011;17710;52.520;13.352;2023-04-15T07:04:46;15.65;;;11.32;;
31043;SDS011;17710;52.520;13.352;2023-04-15T07:07:12;16.67;;;10.70;;
31043;SDS011;17710;52.520;13.352;2023-04-15T07:09:40;16.10;;;10.68;;
31043;SDS011;17710;52.520;13.352;2023-04-15T07:12:07;16.05;;;10.93;;
31043;SDS011;17710;52.520;13.352;2023-04-15T07:14:33;17.50;;;10.98;;
31043;SDS011;17710;52.520;13.352;2023-04-15T07:17:00;18.08;;;10.05;;
31043;SDS011;17710;52.520;13.352;2023-04-15T07:19:27;15.05;;;9.85;;
31043;SDS011;17710;52.520;13.352;2023-04-15T07:21:53;16.45;;;10.88;;
31043;SDS011;17710;52.520;13.352;2023-04-15T07:24:19;16.58;;;10.07;;
31043;SDS011;17710;52.520;13.352;2023-04-15T07:26:48;13.93;;;9.68;;
31043;SDS011;17710;52.520;13.352;2023-04-15T07:29:15;14.25;;;9.10;;
31043;SDS011;17710;52.520;13.352;2023-04-15T07:31:41;16.33;;;10.00;;
31043;SDS011;17710;52.520;13.352;2023-04-15T07:34:08;16.13;;;10.68;;
31043;SDS011;17710;52.520;13.352;2023-04-15T07:36:34;13.88;;;10.65;;
31043;SDS011;17710;52.520;13.352;2023-04-15T07:39:01;15.05;;;10.38;;
31043;SDS011;17710;52.520;13.352;2023-04-15T07:41:28;13.75;;;10.27;;
31043;SDS011;17710;52.520;13.352;2023-04-15T07:43:56;16.15;;;10.00;;
31043;SDS011;17710;52.520;13.352;2023-04-15T07:46:23;16.25;;;10.60;;
31043;SDS011;17710;52.520;13.352;2023-04-15T07:48:51;16.30;;;10.73;;
31043;SDS011;17710;52.520;13.352;2023-04-15T07:51:17;16.70;;;11.63;;
31043;SDS011;17710;52.520;13.352;2023-04-15T07:53:45;14.23;;;10.77;;
31043;SDS011;17710;52.520;13.352;2023-04-15T07:56:11;19.52;;;11.30;;
31043;SDS011;17710;52.520;13.352;2023-04-15T07:58:38;16.95;;;11.43;;
31043;SDS011;17710;52.520;13.352;2023-04-15T08:01:06;18.02;;;11.85;;
31043;SDS011;17710;52.520;13.352;2023-04-15T08:03:32;15.43;;;11.43;;
31043;SDS011;17710;52.520;13.352;2023-04-15T08:05:59;16.10;;;11.65;;
31043;SDS011;17710;52.520;13.352;2023-04-15T08:08:25;14.50;;;11.20;;
31043;SDS011;17710;52.520;13.352;2023-04-15T08:10:52;16.75;;;12.05;;
31043;SDS011;17710;52.520;13.352;2023-04-15T08:13:18;17.25;;;11.45;;
31043;SDS011;17710;52.520;13.352;2023-04-15T08:15:45;16.02;;;11.52;;
31043;SDS011;17710;52.520;13.352;2023-04-15T08:18:20;14.35;;;11.13;;
31043;SDS011;17710;52.520;13.352;2023-04-15T08:20:46;16.50;;;11.55;;
31043;SDS011;17710;52.520;13.352;2023-04-15T08:23:13;19.25;;;13.23;;
31043;SDS011;17710;52.520;13.352;2023-04-15T08:25:40;16.52;;;11.50;;
31043;SDS011;17710;52.520;13.352;2023-04-15T08:28:07;18.27;;;12.10;;
31043;SDS011;17710;52.520;13.352;2023-04-15T08:30:34;18.05;;;11.80;;
31043;SDS011;17710;52.520;13.352;2023-04-15T08:33:00;18.52;;;12.23;;
31043;SDS011;17710;52.520;13.352;2023-04-15T08:35:29;19.08;;;12.20;;
31043;SDS011;17710;52.520;13.352;2023-04-15T08:37:55;16.58;;;12.13;;
31043;SDS011;17710;52.520;13.352;2023-04-15T08:40:22;17.48;;;11.98;;
31043;SDS011;17710;52.520;13.352;2023-04-15T08:42:55;16.58;;;11.38;;
31043;SDS011;17710;52.520;13.352;2023-04-15T08:45:23;18.80;;;12.73;;
31043;SDS011;17710;52.520;13.352;2023-04-15T08:47:50;17.10;;;11.63;;
31043;SDS011;17710;52.520;13.352;2023-04-15T08:50:21;14.13;;;11.70;;
31043;SDS011;17710;52.520;13.352;2023-04-15T08:52:50;16.90;;;11.98;;
31043;SDS011;17710;52.520;13.352;2023-04-15T08:55:19;15.63;;;12.13;;
31043;SDS011;17710;52.520;13.352;2023-04-15T08:57:46;15.35;;;12.30;;
31043;SDS011;17710;52.520;13.352;2023-04-15T09:00:13;18.98;;;12.90;;
31043;SDS011;17710;52.520;13.352;2023-04-15T09:02:41;18.05;;;12.65;;
31043;SDS011;17710;52.520;13.352;2023-04-15T09:05:08;18.30;;;12.90;;
31043;SDS011;17710;52.520;13.352;2023-04-15T09:07:35;19.55;;;12.77;;
31043;SDS011;17710;52.520;13.352;2023-04-15T09:10:03;18.08;;;12.45;;
31043;SDS011;17710;52.520;13.352;2023-04-15T09:12:32;16.30;;;12.25;;
31043;SDS011;17710;52.520;13.352;2023-04-15T09:15:00;19.65;;;12.48;;
31043;SDS011;17710;52.520;13.352;2023-04-15T09:17:27;18.00;;;13.18;;
31043;SDS011;17710;52.520;13.352;2023-04-15T09:20:06;16.02;;;11.85;;
31043;SDS011;17710;52.520;13.352;2023-04-15T09:22:33;17.38;;;11.75;;
31043;SDS011;17710;52.520;13.352;2023-04-15T09:25:02;15.82;;;12.52;;
31043;SDS011;17710;52.520;13.352;2023-04-15T09:27:29;14.48;;;11.55;;
31043;SDS011;17710;52.520;13.352;2023-04-15T09:29:56;15.95;;;11.98;;
31043;SDS011;17710;52.520;13.352;2023-04-15T09:32:23;13.60;;;10.95;;
31043;SDS011;17710;52.520;13.352;2023-04-15T09:34:49;17.50;;;12.02;;
31043;SDS011;17710;52.520;13.352;2023-04-15T09:37:16;14.98;;;11.55;;
31043;SDS011;17710;52.520;13.352;2023-04-15T09:39:45;16.17;;;12.05;;
31043;SDS011;17710;52.520;13.352;2023-04-15T09:42:15;14.45;;;11.70;;
31043;SDS011;17710;52.520;13.352;2023-04-15T09:44:48;18.10;;;11.65;;
31043;SDS011;17710;52.520;13.352;2023-04-15T09:47:26;15.18;;;11.23;;
31043;SDS011;17710;52.520;13.352;2023-04-15T09:49:54;15.93;;;11.93;;
31043;SDS011;17710;52.520;13.352;2023-04-15T09:52:21;14.25;;;10.30;;
31043;SDS011;17710;52.520;13.352;2023-04-15T09:54:47;17.80;;;12.05;;
31043;SDS011;17710;52.520;13.352;2023-04-15T09:57:19;14.65;;;11.52;;
31043;SDS011;17710;52.520;13.352;2023-04-15T09:59:47;17.58;;;12.32;;
31043;SDS011;17710;52.520;13.352;2023-04-15T10:02:14;15.07;;;11.50;;
31043;SDS011;17710;52.520;13.352;2023-04-15T10:04:43;12.73;;;11.25;;
31043;SDS011;17710;52.520;13.352;2023-04-15T10:07:11;13.48;;;11.05;;
31043;SDS011;17710;52.520;13.352;2023-04-15T10:09:39;16.58;;;11.68;;
31043;SDS011;17710;52.520;13.352;2023-04-15T10:12:06;13.68;;;10.60;;
31043;SDS011;17710;52.520;13.352;2023-04-15T10:14:35;14.50;;;11.68;;
31043;SDS011;17710;52.520;13.352;2023-04-15T10:17:04;14.63;;;11.00;;
31043;SDS011;17710;52.520;13.352;2023-04-15T10:19:32;15.35;;;11.95;;
31043;SDS011;17710;52.520;13.352;2023-04-15T10:22:01;18.25;;;11.57;;
31043;SDS011;17710;52.520;13.352;2023-04-15T10:24:28;16.63;;;11.68;;
31043;SDS011;17710;52.520;13.352;2023-04-15T10:26:56;14.13;;;10.45;;
31043;SDS011;17710;52.520;13.352;2023-04-15T10:29:24;18.48;;;12.27;;
31043;SDS011;17710;52.520;13.352;2023-04-15T10:31:53;15.38;;;11.85;;
31043;SDS011;17710;52.520;13.352;2023-04-15T10:34:20;15.38;;;12.20;;
31043;SDS011;17710;52.520;13.352;2023-04-15T10:36:48;14.68;;;11.80;;
31043;SDS011;17710;52.520;13.352;2023-04-15T10:42:05;13.45;;;11.07;;
31043;SDS011;17710;52.520;13.352;2023-04-15T10:44:32;18.50;;;11.68;;
31043;SDS011;17710;52.520;13.352;2023-04-15T10:47:00;15.65;;;11.40;;
31043;SDS011;17710;52.520;13.352;2023-04-15T10:49:29;16.38;;;11.25;;
31043;SDS011;17710;52.520;13.352;2023-04-15T10:51:56;16.48;;;11.90;;
31043;SDS011;17710;52.520;13.352;2023-04-15T10:54:29;15.88;;;11.45;;
31043;SDS011;17710;52.520;13.352;2023-04-15T10:57:06;15.40;;;10.93;;
31043;SDS011;17710;52.520;13.352;2023-04-15T10:59:35;16.38;;;11.27;;
31043;SDS011;17710;52.520;13.352;2023-04-15T11:02:03;14.63;;;11.38;;
31043;SDS011;17710;52.520;13.352;2023-04-15T11:10:01;17.13;;;11.35;;
31043;SDS011;17710;52.520;13.352;2023-04-15T11:12:34;20.13;;;11.80;;
31043;SDS011;17710;52.520;13.352;2023-04-15T11:17:53;16.98;;;11.95;;
31043;SDS011;17710;52.520;13.352;2023-04-15T11:20:20;15.65;;;10.88;;
31043;SDS011;17710;52.520;13.352;2023-04-15T11:22:47;15.57;;;10.25;;
31043;SDS011;17710;52.520;13.352;2023-04-15T11:25:21;15.80;;;11.25;;
31043;SDS011;17710;52.520;13.352;2023-04-15T11:27:48;15.80;;;10.93;;
31043;SDS011;17710;52.520;13.352;2023-04-15T11:30:17;13.18;;;11.18;;
31043;SDS011;17710;52.520;13.352;2023-04-15T11:32:45;16.05;;;11.40;;
31043;SDS011;17710;52.520;13.352;2023-04-15T11:35:12;14.73;;;11.30;;
31043;SDS011;17710;52.520;13.352;2023-04-15T11:37:39;14.82;;;11.82;;
31043;SDS011;17710;52.520;13.352;2023-04-15T11:40:06;14.30;;;11.38;;
31043;SDS011;17710;52.520;13.352;2023-04-15T11:42:34;13.60;;;10.70;;
31043;SDS011;17710;52.520;13.352;2023-04-15T11:45:05;14.55;;;11.00;;
31043;SDS011;17710;52.520;13.352;2023-04-15T11:47:33;12.75;;;10.48;;
31043;SDS011;17710;52.520;13.352;2023-04-15T11:50:13;14.85;;;10.85;;
31043;SDS011;17710;52.520;13.352;2023-04-15T11:52:40;14.75;;;10.68;;
31043;SDS011;17710;52.520;13.352;2023-04-15T11:55:07;12.90;;;10.85;;
31043;SDS011;17710;52.520;13.352;2023-04-15T11:57:34;17.10;;;11.35;;
31043;SDS011;17710;52.520;13.352;2023-04-15T12:00:00;14.38;;;10.70;;
31043;SDS011;17710;52.520;13.352;2023-04-15T12:02:29;14.40;;;11.13;;
31043;SDS011;17710;52.520;13.352;2023-04-15T12:05:01;14.00;;;11.20;;
31043;SDS011;17710;52.520;13.352;2023-04-15T12:07:30;15.77;;;12.07;;
31043;SDS011;17710;52.520;13.352;2023-04-15T12:09:57;13.88;;;11.00;;
31043;SDS011;17710;52.520;13.352;2023-04-15T12:12:25;13.35;;;10.05;;
31043;SDS011;17710;52.520;13.352;2023-04-15T12:14:53;14.25;;;10.65;;
31043;SDS011;17710;52.520;13.352;2023-04-15T12:17:21;17.52;;;11.00;;
31043;SDS011;17710;52.520;13.352;2023-04-15T12:19:54;16.38;;;10.75;;
31043;SDS011;17710;52.520;13.352;2023-04-15T12:22:21;13.88;;;10.02;;
31043;SDS011;17710;52.520;13.352;2023-04-15T12:24:53;12.07;;;9.93;;
31043;SDS011;17710;52.520;13.352;2023-04-15T12:27:24;12.48;;;9.95;;
31043;SDS011;17710;52.520;13.352;2023-04-15T12:29:54;11.98;;;9.40;;
31043;SDS011;17710;52.520;13.352;2023-04-15T12:32:29;13.55;;;10.48;;
31043;SDS011;17710;52.520;13.352;2023-04-15T12:35:00;15.27;;;11.57;;
31043;SDS011;17710;52.520;13.352;2023-04-15T12:37:26;13.18;;;9.63;;
31043;SDS011;17710;52.520;13.352;2023-04-15T12:39:54;12.35;;;10.25;;
31043;SDS011;17710;52.520;13.352;2023-04-15T12:42:20;13.43;;;8.90;;
31043;SDS011;17710;52.520;13.352;2023-04-15T12:44:47;11.88;;;9.00;;
31043;SDS011;17710;52.520;13.352;2023-04-15T12:47:13;10.85;;;8.70;;
31043;SDS011;17710;52.520;13.352;2023-04-15T12:49:40;11.50;;;8.95;;
31043;SDS011;17710;52.520;13.352;2023-04-15T12:52:06;15.48;;;10.05;;
31043;SDS011;17710;52.520;13.352;2023-04-15T12:54:33;14.00;;;9.55;;
31043;SDS011;17710;52.520;13.352;2023-04-15T12:57:01;10.43;;;9.18;;
31043;SDS011;17710;52.520;13.352;2023-04-15T12:59:28;13.70;;;9.63;;
31043;SDS011;17710;52.520;13.352;2023-04-15T13:01:54;12.48;;;9.13;;
31043;SDS011;17710;52.520;13.352;2023-04-15T13:04:21;11.88;;;9.75;;
31043;SDS011;17710;52.520;13.352;2023-04-15T13:06:47;13.25;;;9.15;;
31043;SDS011;17710;52.520;13.352;2023-04-15T13:09:14;14.50;;;9.43;;
31043;SDS011;17710;52.520;13.352;2023-04-15T13:11:40;11.93;;;9.30;;
31043;SDS011;17710;52.520;13.352;2023-04-15T13:14:09;13.07;;;8.25;;
31043;SDS011;17710;52.520;13.352;2023-04-15T13:16:36;10.85;;;8.45;;
31043;SDS011;17710;52.520;13.352;2023-04-15T13:19:03;11.40;;;7.82;;
31043;SDS011;17710;52.520;13.352;2023-04-15T13:21:30;12.07;;;9.60;;
31043;SDS011;17710;52.520;13.352;2023-04-15T13:23:59;12.98;;;8.02;;
31043;SDS011;17710;52.520;13.352;2023-04-15T13:26:26;10.43;;;8.75;;
31043;SDS011;17710;52.520;13.352;2023-04-15T13:28:53;12.43;;;8.43;;
31043;SDS011;17710;52.520;13.352;2023-04-15T13:31:20;12.35;;;8.80;;
31043;SDS011;17710;52.520;13.352;2023-04-15T13:33:47;11.52;;;8.30;;
31043;SDS011;17710;52.520;13.352;2023-04-15T13:36:13;12.15;;;8.75;;
31043;SDS011;17710;52.520;13.352;2023-04-15T13:38:40;10.38;;;8.60;;
31043;SDS011;17710;52.520;13.352;2023-04-15T13:41:06;12.23;;;9.60;;
31043;SDS011;17710;52.520;13.352;2023-04-15T13:43:33;13.13;;;8.75;;
31043;SDS011;17710;52.520;13.352;2023-04-15T13:45:59;12.02;;;8.05;;
31043;SDS011;17710;52.520;13.352;2023-04-15T13:48:30;16.85;;;11.95;;
31043;SDS011;17710;52.520;13.352;2023-04-15T13:50:56;9.75;;;7.10;;
31043;SDS011;17710;52.520;13.352;2023-04-15T13:53:23;9.43;;;7.63;;
31043;SDS011;17710;52.520;13.352;2023-04-15T13:55:49;7.80;;;7.00;;
31043;SDS011;17710;52.520;13.352;2023-04-15T13:58:16;8.65;;;7.15;;
31043;SDS011;17710;52.520;13.352;2023-04-15T14:00:42;7.13;;;6.40;;
31043;SDS011;17710;52.520;13.352;2023-04-15T14:03:08;8.18;;;6.82;;
31043;SDS011;17710;52.520;13.352;2023-04-15T14:05:36;8.65;;;7.25;;
31043;SDS011;17710;52.520;13.352;2023-04-15T14:08:02;8.77;;;7.55;;
31043;SDS011;17710;52.520;13.352;2023-04-15T14:10:29;11.95;;;7.93;;
31043;SDS011;17710;52.520;13.352;2023-04-15T14:12:56;10.20;;;7.80;;
31043;SDS011;17710;52.520;13.352;2023-04-15T14:15:22;10.20;;;8.02;;
31043;SDS011;17710;52.520;13.352;2023-04-15T14:17:48;9.45;;;7.63;;
31043;SDS011;17710;52.520;13.352;2023-04-15T14:20:15;10.93;;;8.20;;
31043;SDS011;17710;52.520;13.352;2023-04-15T14:22:43;11.05;;;8.07;;